Time;durP1;ratioP1;P1;durP2;ratioP2;P2;SDS_P1;SDS_P2;PMS_P1;PMS_P2;Temp;Humidity;BMP_temperature;BMP_pressure;BME280_temperature;BME280_humidity;BME280_pressure;Samples;Min_cycle;Max_cycle;Signal;HPM_P1;HPM_P2
2021/12/25 00:01:48;;;;;;;;;;;20.30;34.00;;;;;;482583;246;1346;-47
2021/12/25 00:03:49;;;;;;;;;;;20.50;33.70;;;;;;482612;246;1026;-46
2021/12/25 00:05:52;;;;;;;;;;;20.70;33.40;;;;;;482306;246;1218;-46
2021/12/25 00:07:52;;;;;;;;;;;20.90;33.20;;;;;;482292;247;1569;-46
2021/12/25 00:09:53;;;;;;;;;;;20.90;32.90;;;;;;482411;246;1058;-46
2021/12/25 00:11:54;;;;;;;;;;;21.10;32.70;;;;;;482150;246;2212;-47
2021/12/25 00:13:56;;;;;;;;;;;21.10;32.60;;;;;;482407;246;1150;-47
2021/12/25 00:15:57;;;;;;;;;;;21.20;32.50;;;;;;482625;246;1207;-46
2021/12/25 00:17:58;;;;;;;;;;;21.20;32.40;;;;;;482235;246;1163;-46
2021/12/25 00:20:00;;;;;;;;;;;21.30;32.30;;;;;;482649;246;1230;-47
2021/12/25 00:22:01;;;;;;;;;;;21.40;32.30;;;;;;482094;246;1243;-46
2021/12/25 00:24:02;;;;;;;;;;;21.40;32.20;;;;;;482266;246;1250;-47
2021/12/25 00:26:08;;;;;;;;;;;21.40;32.10;;;;;;482397;246;1628;-47
2021/12/25 00:28:19;;;;;;;;;;;21.50;32.10;;;;;;481969;247;2065;-46
2021/12/25 00:32:46;;;;;;;;;;;21.60;32.10;;;;;;480723;247;1588;-47
2021/12/25 00:34:41;;;;;;;;;;;21.60;32.00;;;;;;481860;247;2167;-47
2021/12/25 00:36:42;;;;;;;;;;;21.60;31.90;;;;;;482218;246;1286;-47
2021/12/25 00:38:43;;;;;;;;;;;21.60;31.90;;;;;;482666;246;1277;-46
2021/12/25 00:40:45;;;;;;;;;;;21.70;31.90;;;;;;482609;246;1367;-46
2021/12/25 00:42:46;;;;;;;;;;;21.70;31.80;;;;;;482238;246;1215;-46
2021/12/25 00:44:47;;;;;;;;;;;21.70;31.80;;;;;;482235;246;1122;-46
2021/12/25 00:46:49;;;;;;;;;;;21.80;31.80;;;;;;482397;246;1379;-46
2021/12/25 00:48:50;;;;;;;;;;;21.80;31.70;;;;;;482247;246;1097;-47
2021/12/25 00:50:51;;;;;;;;;;;21.80;31.70;;;;;;482202;246;2209;-47
2021/12/25 00:52:53;;;;;;;;;;;21.80;31.70;;;;;;482185;246;1502;-47
2021/12/25 00:54:54;;;;;;;;;;;21.90;31.70;;;;;;482477;246;1254;-47
2021/12/25 00:56:55;;;;;;;;;;;21.90;31.60;;;;;;482349;246;1299;-46
2021/12/25 00:58:56;;;;;;;;;;;21.90;31.60;;;;;;482231;246;1038;-46
2021/12/25 01:00:58;;;;;;;;;;;21.90;31.60;;;;;;482209;246;1345;-47
2021/12/25 01:02:59;;;;;;;;;;;21.90;31.60;;;;;;482213;246;1570;-46
2021/12/25 01:05:00;;;;;;;;;;;21.90;31.50;;;;;;482702;246;1083;-47
2021/12/25 01:07:02;;;;;;;;;;;22.00;31.60;;;;;;482197;246;1244;-46
2021/12/25 01:09:03;;;;;;;;;;;22.00;31.50;;;;;;482420;246;1269;-46
2021/12/25 01:11:04;;;;;;;;;;;22.00;31.50;;;;;;482151;246;2206;-46
2021/12/25 01:13:10;;;;;;;;;;;22.00;31.50;;;;;;482483;246;1026;-46
2021/12/25 01:15:08;;;;;;;;;;;22.00;31.50;;;;;;482287;247;2216;-47
2021/12/25 01:19:48;;;;;;;;;;;22.10;31.50;;;;;;468666;247;1242;-46
2021/12/25 01:22:09;;;;;;;;;;;22.10;31.50;;;;;;481882;247;2268;-47
2021/12/25 01:26:51;;;;;;;;;;;22.10;31.40;;;;;;482638;247;1328;-47
2021/12/25 01:29:13;;;;;;;;;;;22.10;31.50;;;;;;481600;247;2282;-46
2021/12/25 01:31:03;;;;;;;;;;;22.10;31.40;;;;;;481063;247;2201;-47
2021/12/25 01:33:20;;;;;;;;;;;22.10;31.40;;;;;;481770;247;2262;-46
2021/12/25 01:35:31;;;;;;;;;;;22.10;31.40;;;;;;481066;247;1579;-46
2021/12/25 01:37:34;;;;;;;;;;;22.10;31.40;;;;;;481664;247;2657;-46
2021/12/25 01:39:28;;;;;;;;;;;22.20;31.40;;;;;;481863;247;1959;-46
2021/12/25 01:41:52;;;;;;;;;;;22.20;31.40;;;;;;482311;243;2331;-46
2021/12/25 01:48:09;;;;;;;;;;;22.20;31.30;;;;;;482194;247;1139;-46
2021/12/25 01:50:10;;;;;;;;;;;22.20;31.30;;;;;;482253;246;1053;-47
2021/12/25 01:52:11;;;;;;;;;;;22.20;31.30;;;;;;482144;246;2189;-46
2021/12/25 01:54:13;;;;;;;;;;;22.20;31.40;;;;;;482427;246;1032;-46
2021/12/25 01:56:14;;;;;;;;;;;22.20;31.30;;;;;;482628;246;1147;-47
2021/12/25 01:58:15;;;;;;;;;;;22.20;31.30;;;;;;482219;246;1242;-47
2021/12/25 02:00:17;;;;;;;;;;;22.30;31.30;;;;;;482236;246;1149;-47
2021/12/25 02:02:18;;;;;;;;;;;22.30;31.40;;;;;;482539;246;1199;-46
2021/12/25 02:04:19;;;;;;;;;;;22.30;31.30;;;;;;482511;246;969;-46
2021/12/25 02:06:21;;;;;;;;;;;22.30;31.30;;;;;;482645;243;1223;-47
2021/12/25 02:08:22;;;;;;;;;;;22.30;31.30;;;;;;482429;246;1366;-46
2021/12/25 02:10:23;;;;;;;;;;;22.30;31.30;;;;;;482489;246;1073;-46
2021/12/25 02:12:25;;;;;;;;;;;22.30;31.30;;;;;;482353;246;2196;-46
2021/12/25 02:14:26;;;;;;;;;;;22.30;31.30;;;;;;482229;246;1334;-47
2021/12/25 02:16:30;;;;;;;;;;;22.30;31.30;;;;;;482198;246;1523;-47
2021/12/25 02:18:36;;;;;;;;;;;22.30;31.30;;;;;;482130;247;2571;-46
2021/12/25 02:20:34;;;;;;;;;;;22.30;31.30;;;;;;481857;247;1912;-47
2021/12/25 02:22:33;;;;;;;;;;;22.30;31.30;;;;;;482123;247;2464;-46
2021/12/25 02:24:33;;;;;;;;;;;22.40;31.30;;;;;;482233;246;1885;-47
2021/12/25 02:26:34;;;;;;;;;;;22.40;31.30;;;;;;482280;246;1164;-47
2021/12/25 02:28:35;;;;;;;;;;;22.40;31.30;;;;;;482262;246;1115;-47
2021/12/25 02:30:37;;;;;;;;;;;22.40;31.30;;;;;;482359;246;1245;-47
2021/12/25 02:32:38;;;;;;;;;;;22.30;31.30;;;;;;482470;246;2134;-46
2021/12/25 02:34:39;;;;;;;;;;;22.40;31.30;;;;;;482255;246;1054;-47
2021/12/25 02:36:41;;;;;;;;;;;22.40;31.30;;;;;;482394;246;1397;-47
2021/12/25 02:38:42;;;;;;;;;;;22.40;31.30;;;;;;482293;246;1204;-46
2021/12/25 02:40:43;;;;;;;;;;;22.40;31.30;;;;;;482719;246;1134;-47
2021/12/25 02:42:45;;;;;;;;;;;22.40;31.30;;;;;;482481;246;1349;-46
2021/12/25 02:44:46;;;;;;;;;;;22.40;31.30;;;;;;482305;246;1052;-46
2021/12/25 02:46:52;;;;;;;;;;;22.40;31.30;;;;;;482244;246;1312;-47
2021/12/25 02:48:49;;;;;;;;;;;22.40;31.30;;;;;;482144;247;2279;-46
2021/12/25 02:50:51;;;;;;;;;;;22.40;31.30;;;;;;482433;246;1382;-46
2021/12/25 02:52:52;;;;;;;;;;;22.40;31.30;;;;;;482350;246;2114;-47
2021/12/25 02:54:53;;;;;;;;;;;22.40;31.30;;;;;;482418;246;993;-47
2021/12/25 02:56:55;;;;;;;;;;;22.40;31.30;;;;;;482348;246;1155;-47
2021/12/25 02:58:56;;;;;;;;;;;22.40;31.30;;;;;;482298;246;1110;-47
2021/12/25 03:00:57;;;;;;;;;;;22.50;31.40;;;;;;482560;246;1228;-46
2021/12/25 03:03:00;;;;;;;;;;;22.40;31.30;;;;;;482211;246;1195;-47
2021/12/25 03:05:00;;;;;;;;;;;22.50;31.40;;;;;;482214;246;1584;-47
2021/12/25 03:07:01;;;;;;;;;;;22.50;31.40;;;;;;482418;246;1347;-47
2021/12/25 03:09:03;;;;;;;;;;;22.50;31.40;;;;;;482280;246;1120;-46
2021/12/25 03:11:06;;;;;;;;;;;22.50;31.40;;;;;;482297;246;1251;-46
2021/12/25 03:13:18;;;;;;;;;;;22.50;31.40;;;;;;482155;247;2188;-46
2021/12/25 03:15:08;;;;;;;;;;;22.50;31.40;;;;;;481557;247;2239;-47
2021/12/25 03:17:08;;;;;;;;;;;22.50;31.40;;;;;;482159;247;1984;-46
2021/12/25 03:19:18;;;;;;;;;;;22.50;31.40;;;;;;482680;246;1063;-47
2021/12/25 03:21:11;;;;;;;;;;;22.50;31.40;;;;;;481992;247;2039;-46
2021/12/25 03:23:13;;;;;;;;;;;22.50;31.40;;;;;;482257;246;1151;-46
2021/12/25 03:25:14;;;;;;;;;;;22.50;31.40;;;;;;482744;246;1109;-47
2021/12/25 03:27:15;;;;;;;;;;;22.50;31.40;;;;;;482210;246;1185;-47
2021/12/25 03:29:17;;;;;;;;;;;22.60;31.40;;;;;;482755;246;1282;-47
2021/12/25 03:31:20;;;;;;;;;;;22.60;31.40;;;;;;482553;246;1159;-47
2021/12/25 03:33:19;;;;;;;;;;;22.60;31.40;;;;;;482552;247;2201;-47
2021/12/25 03:35:20;;;;;;;;;;;22.60;31.40;;;;;;482708;246;2025;-47
2021/12/25 03:37:22;;;;;;;;;;;22.60;31.40;;;;;;482328;246;1474;-47
2021/12/25 03:39:23;;;;;;;;;;;22.60;31.40;;;;;;482270;246;1321;-46
2021/12/25 03:41:25;;;;;;;;;;;22.60;31.40;;;;;;482450;246;1312;-47
2021/12/25 03:43:26;;;;;;;;;;;22.60;31.40;;;;;;482674;246;1206;-46
2021/12/25 03:45:30;;;;;;;;;;;22.60;31.30;;;;;;482535;246;1155;-47
2021/12/25 03:47:33;;;;;;;;;;;22.60;31.40;;;;;;482006;247;1798;-47
2021/12/25 03:53:04;;;;;;;;;;;22.60;31.40;;;;;;482257;247;2047;-47
2021/12/25 03:58:32;;;;;;;;;;;22.70;31.30;;;;;;482702;247;1001;-47
2021/12/25 04:00:35;;;;;;;;;;;22.70;31.30;;;;;;482267;246;1070;-47
2021/12/25 04:02:42;;;;;;;;;;;22.70;31.30;;;;;;482162;246;2243;-47
2021/12/25 04:04:42;;;;;;;;;;;22.60;31.30;;;;;;481858;247;1525;-46
2021/12/25 04:06:44;;;;;;;;;;;22.60;31.30;;;;;;481857;247;2332;-46
2021/12/25 04:08:44;;;;;;;;;;;22.60;31.40;;;;;;482377;247;1495;-47
2021/12/25 04:10:42;;;;;;;;;;;22.60;31.40;;;;;;482042;247;2535;-47
2021/12/25 04:12:44;;;;;;;;;;;22.50;31.50;;;;;;482569;246;2196;-46
2021/12/25 04:14:45;;;;;;;;;;;22.30;31.80;;;;;;482538;246;1019;-47
2021/12/25 04:16:46;;;;;;;;;;;22.10;32.10;;;;;;482321;246;1353;-46
2021/12/25 04:18:48;;;;;;;;;;;22.00;32.40;;;;;;482589;246;1127;-46
2021/12/25 04:20:49;;;;;;;;;;;21.80;32.80;;;;;;482547;246;1205;-46
2021/12/25 04:22:56;;;;;;;;;;;21.70;32.90;;;;;;482390;246;1340;-47
2021/12/25 04:24:52;;;;;;;;;;;21.60;33.10;;;;;;481931;247;2327;-47
2021/12/25 04:26:53;;;;;;;;;;;21.50;33.30;;;;;;482644;246;1369;-47
2021/12/25 04:29:04;;;;;;;;;;;21.50;33.30;;;;;;482268;246;1302;-46
2021/12/25 04:31:19;;;;;;;;;;;21.40;33.40;;;;;;482055;247;2251;-46
2021/12/25 04:42:51;;;;;;;;;;;21.20;33.70;;;;;;482343;247;1202;-46
2021/12/25 04:50:06;;;;;;;;;;;21.20;33.90;;;;;;482237;247;1084;-46
2021/12/25 05:03:48;;;;;;;;;;;21.00;34.10;;;;;;482233;247;1198;-46
2021/12/25 05:05:43;;;;;;;;;;;21.00;34.10;;;;;;481866;247;2406;-47
2021/12/25 05:07:45;;;;;;;;;;;20.90;34.10;;;;;;482525;246;1192;-47
2021/12/25 05:09:46;;;;;;;;;;;20.90;34.20;;;;;;482292;246;1073;-46
2021/12/25 05:11:47;;;;;;;;;;;20.90;34.30;;;;;;482640;246;1156;-46
2021/12/25 05:13:49;;;;;;;;;;;20.90;34.20;;;;;;482373;246;2193;-46
2021/12/25 05:15:50;;;;;;;;;;;20.90;34.20;;;;;;482239;246;2337;-46
2021/12/25 05:17:51;;;;;;;;;;;20.90;34.20;;;;;;482283;246;1194;-46
2021/12/25 05:19:53;;;;;;;;;;;20.90;34.20;;;;;;482585;246;1046;-46
2021/12/25 05:21:54;;;;;;;;;;;20.90;34.30;;;;;;482348;246;1359;-46
2021/12/25 05:23:57;;;;;;;;;;;20.90;34.30;;;;;;482263;246;1035;-46
2021/12/25 05:25:56;;;;;;;;;;;20.90;34.30;;;;;;482154;246;1736;-46
2021/12/25 05:27:59;;;;;;;;;;;20.90;34.30;;;;;;482244;246;1210;-46
2021/12/25 05:30:00;;;;;;;;;;;20.80;34.30;;;;;;482243;246;1730;-46
2021/12/25 05:32:01;;;;;;;;;;;20.80;34.40;;;;;;482527;246;1286;-46
2021/12/25 05:34:02;;;;;;;;;;;20.80;34.40;;;;;;482184;246;2192;-46
2021/12/25 05:36:04;;;;;;;;;;;20.90;34.40;;;;;;482192;246;1372;-46
2021/12/25 05:38:12;;;;;;;;;;;20.80;34.40;;;;;;482602;246;1221;-46
2021/12/25 05:40:06;;;;;;;;;;;20.80;34.40;;;;;;481902;247;2248;-46
2021/12/25 05:42:08;;;;;;;;;;;20.80;34.40;;;;;;482342;246;1249;-46
2021/12/25 05:44:09;;;;;;;;;;;20.80;34.40;;;;;;482694;246;1079;-46
2021/12/25 05:46:10;;;;;;;;;;;20.80;34.50;;;;;;482160;246;1201;-46
2021/12/25 05:48:12;;;;;;;;;;;20.70;34.40;;;;;;482289;246;1218;-46
2021/12/25 05:50:13;;;;;;;;;;;20.70;34.60;;;;;;482583;246;1050;-46
2021/12/25 05:52:14;;;;;;;;;;;20.70;34.50;;;;;;482106;246;1231;-46
2021/12/25 05:54:16;;;;;;;;;;;20.70;34.50;;;;;;482249;246;2117;-46
2021/12/25 05:56:17;;;;;;;;;;;20.60;34.60;;;;;;482262;246;1601;-46
2021/12/25 05:58:18;;;;;;;;;;;20.60;34.60;;;;;;482334;246;1128;-46
2021/12/25 06:00:20;;;;;;;;;;;20.60;34.60;;;;;;482371;246;1214;-46
2021/12/25 06:02:21;;;;;;;;;;;20.60;34.60;;;;;;482242;246;1615;-46
2021/12/25 06:04:23;;;;;;;;;;;20.60;34.70;;;;;;482424;246;1095;-47
2021/12/25 06:06:25;;;;;;;;;;;20.60;34.70;;;;;;482312;246;1360;-46
2021/12/25 06:08:26;;;;;;;;;;;20.60;34.70;;;;;;482330;246;997;-46
2021/12/25 06:10:27;;;;;;;;;;;20.60;34.70;;;;;;482580;246;1296;-46
2021/12/25 06:12:28;;;;;;;;;;;20.50;34.80;;;;;;482185;246;2109;-45
2021/12/25 06:14:29;;;;;;;;;;;20.60;34.70;;;;;;482399;246;1069;-46
2021/12/25 06:16:31;;;;;;;;;;;20.60;34.70;;;;;;482251;246;1304;-46
2021/12/25 06:18:32;;;;;;;;;;;20.60;34.70;;;;;;482252;246;1180;-46
2021/12/25 06:20:33;;;;;;;;;;;20.60;34.70;;;;;;482598;246;1659;-46
2021/12/25 06:22:35;;;;;;;;;;;20.60;34.60;;;;;;482364;246;1196;-46
2021/12/25 06:24:36;;;;;;;;;;;20.60;34.70;;;;;;482542;246;1045;-46
2021/12/25 06:26:38;;;;;;;;;;;20.60;34.70;;;;;;482469;246;1352;-46
2021/12/25 06:28:39;;;;;;;;;;;20.60;34.60;;;;;;482567;246;1021;-46
2021/12/25 06:30:43;;;;;;;;;;;20.50;34.60;;;;;;482258;246;1079;-46
2021/12/25 06:32:41;;;;;;;;;;;20.60;34.70;;;;;;482129;247;2200;-46
2021/12/25 06:34:43;;;;;;;;;;;20.60;34.70;;;;;;482439;246;1096;-46
2021/12/25 06:36:44;;;;;;;;;;;20.50;34.70;;;;;;482196;246;1350;-46
2021/12/25 06:38:45;;;;;;;;;;;20.50;34.80;;;;;;482528;246;1051;-46
2021/12/25 06:40:47;;;;;;;;;;;20.50;34.80;;;;;;482558;246;1089;-46
2021/12/25 06:42:48;;;;;;;;;;;20.50;34.80;;;;;;482214;246;1337;-46
2021/12/25 06:44:49;;;;;;;;;;;20.50;34.80;;;;;;482228;246;1265;-46
2021/12/25 06:46:51;;;;;;;;;;;20.50;34.80;;;;;;482287;246;1320;-46
2021/12/25 06:48:52;;;;;;;;;;;20.50;34.80;;;;;;482269;246;1163;-46
2021/12/25 06:50:53;;;;;;;;;;;20.50;34.70;;;;;;482474;246;1710;-46
2021/12/25 06:52:55;;;;;;;;;;;20.50;34.70;;;;;;482192;246;2177;-46
2021/12/25 06:54:56;;;;;;;;;;;20.50;34.80;;;;;;482189;246;2490;-46
2021/12/25 06:56:57;;;;;;;;;;;20.50;34.80;;;;;;482286;246;1276;-46
2021/12/25 06:58:59;;;;;;;;;;;20.50;34.80;;;;;;482311;246;1060;-46
2021/12/25 07:01:00;;;;;;;;;;;20.50;34.80;;;;;;482303;246;1252;-47
2021/12/25 07:03:02;;;;;;;;;;;20.50;34.70;;;;;;482139;246;1238;-46
2021/12/25 07:05:03;;;;;;;;;;;20.50;34.70;;;;;;482648;246;1073;-46
2021/12/25 07:07:04;;;;;;;;;;;20.50;34.80;;;;;;482354;246;1481;-46
2021/12/25 07:09:06;;;;;;;;;;;20.50;34.70;;;;;;482720;246;1032;-46
2021/12/25 07:11:07;;;;;;;;;;;20.50;34.80;;;;;;482467;246;1290;-46
2021/12/25 07:13:15;;;;;;;;;;;20.40;34.80;;;;;;482346;246;2113;-46
2021/12/25 07:15:09;;;;;;;;;;;20.40;34.80;;;;;;482034;247;1979;-46
2021/12/25 07:17:11;;;;;;;;;;;20.50;34.80;;;;;;482381;246;1124;-46
2021/12/25 07:19:15;;;;;;;;;;;20.50;34.80;;;;;;482418;246;1205;-46
2021/12/25 07:21:14;;;;;;;;;;;20.50;34.80;;;;;;482107;246;1763;-46
2021/12/25 07:23:16;;;;;;;;;;;20.40;34.80;;;;;;482238;246;1232;-46
2021/12/25 07:25:17;;;;;;;;;;;20.40;34.90;;;;;;482284;246;1330;-46
2021/12/25 07:27:18;;;;;;;;;;;20.40;34.90;;;;;;482616;246;1256;-46
2021/12/25 07:29:19;;;;;;;;;;;20.40;35.00;;;;;;482240;246;1129;-46
2021/12/25 07:31:21;;;;;;;;;;;20.40;35.00;;;;;;482264;246;1203;-46
2021/12/25 07:33:22;;;;;;;;;;;20.40;35.00;;;;;;482254;246;2125;-46
2021/12/25 07:35:23;;;;;;;;;;;20.40;35.00;;;;;;482233;246;1329;-46
2021/12/25 07:37:25;;;;;;;;;;;20.40;34.90;;;;;;482400;246;1192;-46
2021/12/25 07:39:26;;;;;;;;;;;20.40;34.90;;;;;;482687;246;1076;-46
2021/12/25 07:41:27;;;;;;;;;;;20.40;34.90;;;;;;482104;246;1520;-46
2021/12/25 07:43:29;;;;;;;;;;;20.40;35.00;;;;;;482250;246;1204;-46
2021/12/25 07:45:30;;;;;;;;;;;20.40;35.00;;;;;;482684;246;1394;-46
2021/12/25 07:47:32;;;;;;;;;;;20.40;35.00;;;;;;482526;246;1155;-46
2021/12/25 07:49:33;;;;;;;;;;;20.40;35.00;;;;;;482262;246;2111;-46
2021/12/25 07:51:34;;;;;;;;;;;20.40;35.00;;;;;;482461;246;1216;-46
2021/12/25 07:53:35;;;;;;;;;;;20.30;35.00;;;;;;482379;246;2192;-46
2021/12/25 07:55:37;;;;;;;;;;;20.30;35.00;;;;;;482186;246;1341;-46
2021/12/25 07:57:38;;;;;;;;;;;20.30;35.00;;;;;;482182;246;1248;-46
2021/12/25 07:59:39;;;;;;;;;;;20.30;34.90;;;;;;482311;246;1061;-46
2021/12/25 08:01:41;;;;;;;;;;;20.40;35.00;;;;;;482397;246;1195;-46
2021/12/25 08:03:42;;;;;;;;;;;20.30;35.00;;;;;;482524;246;1269;-46
2021/12/25 08:05:43;;;;;;;;;;;20.30;35.00;;;;;;482465;246;1398;-46
2021/12/25 08:07:45;;;;;;;;;;;20.40;35.00;;;;;;482135;246;1177;-46
2021/12/25 08:09:46;;;;;;;;;;;20.40;35.00;;;;;;482505;246;1042;-46
2021/12/25 08:11:47;;;;;;;;;;;20.30;35.00;;;;;;482498;246;1371;-46
2021/12/25 08:13:48;;;;;;;;;;;20.30;35.00;;;;;;482368;246;2184;-46
2021/12/25 08:15:50;;;;;;;;;;;20.30;35.00;;;;;;482626;246;1146;-46
2021/12/25 08:17:51;;;;;;;;;;;20.30;35.00;;;;;;482235;246;1197;-46
2021/12/25 08:19:52;;;;;;;;;;;20.30;35.00;;;;;;482371;246;1237;-46
2021/12/25 08:21:54;;;;;;;;;;;20.30;35.00;;;;;;482208;246;1244;-46
2021/12/25 08:23:55;;;;;;;;;;;20.30;35.00;;;;;;482266;246;1198;-46
2021/12/25 08:25:56;;;;;;;;;;;20.30;35.10;;;;;;482373;246;1452;-46
2021/12/25 08:27:58;;;;;;;;;;;20.30;35.00;;;;;;482255;246;1403;-46
2021/12/25 08:29:59;;;;;;;;;;;20.30;35.00;;;;;;482357;246;1069;-46
2021/12/25 08:32:00;;;;;;;;;;;20.30;35.00;;;;;;482439;246;1340;-46
2021/12/25 08:34:02;;;;;;;;;;;20.30;35.00;;;;;;482643;246;2189;-46
2021/12/25 08:36:03;;;;;;;;;;;20.30;35.00;;;;;;482529;246;1368;-46
2021/12/25 08:38:04;;;;;;;;;;;20.30;35.00;;;;;;482215;246;1089;-46
2021/12/25 08:40:06;;;;;;;;;;;20.30;35.10;;;;;;482260;246;1282;-46
2021/12/25 08:42:07;;;;;;;;;;;20.30;35.00;;;;;;482187;246;1252;-46
2021/12/25 08:44:30;;;;;;;;;;;20.30;35.00;;;;;;482646;246;1247;-46
2021/12/25 08:46:15;;;;;;;;;;;20.30;35.00;;;;;;480912;247;2260;-46
2021/12/25 08:48:13;;;;;;;;;;;20.30;35.00;;;;;;482221;247;2254;-46
2021/12/25 08:50:14;;;;;;;;;;;20.30;35.00;;;;;;482397;246;1185;-46
2021/12/25 08:52:15;;;;;;;;;;;20.30;35.00;;;;;;482275;246;1276;-46
2021/12/25 08:54:17;;;;;;;;;;;20.30;35.00;;;;;;482395;246;2196;-46
2021/12/25 08:56:18;;;;;;;;;;;20.30;35.00;;;;;;482231;243;1615;-46
2021/12/25 08:58:20;;;;;;;;;;;20.30;35.00;;;;;;482240;246;1076;-46
2021/12/25 09:00:21;;;;;;;;;;;20.30;35.10;;;;;;482336;246;940;-46
2021/12/25 09:02:23;;;;;;;;;;;20.30;35.10;;;;;;482191;246;1246;-46
2021/12/25 09:04:24;;;;;;;;;;;20.30;35.10;;;;;;482570;246;1162;-46
2021/12/25 09:06:26;;;;;;;;;;;20.30;35.00;;;;;;482453;246;1557;-46
2021/12/25 09:08:26;;;;;;;;;;;20.30;35.00;;;;;;482210;246;1516;-46
2021/12/25 09:10:28;;;;;;;;;;;20.30;35.00;;;;;;482231;246;1058;-46
2021/12/25 09:12:32;;;;;;;;;;;20.30;35.00;;;;;;482597;246;1279;-46
2021/12/25 09:14:31;;;;;;;;;;;20.30;35.10;;;;;;482528;247;2137;-46
2021/12/25 09:16:32;;;;;;;;;;;20.20;35.10;;;;;;482154;246;1180;-46
2021/12/25 09:18:34;;;;;;;;;;;20.20;35.10;;;;;;482699;246;1215;-46
2021/12/25 09:20:35;;;;;;;;;;;20.20;35.20;;;;;;482227;246;1228;-46
2021/12/25 09:22:36;;;;;;;;;;;20.30;35.20;;;;;;482175;246;1358;-46
2021/12/25 09:24:38;;;;;;;;;;;20.30;35.10;;;;;;482288;246;1074;-46
2021/12/25 09:26:39;;;;;;;;;;;20.20;35.10;;;;;;482511;246;1422;-46
2021/12/25 09:28:40;;;;;;;;;;;20.20;35.20;;;;;;482381;246;1263;-46
2021/12/25 09:30:42;;;;;;;;;;;20.30;35.10;;;;;;482728;246;1082;-47
2021/12/25 09:32:43;;;;;;;;;;;20.30;35.10;;;;;;482193;246;1213;-46
2021/12/25 09:34:44;;;;;;;;;;;20.20;35.20;;;;;;482221;246;2126;-47
2021/12/25 09:36:46;;;;;;;;;;;20.20;35.20;;;;;;482432;246;1309;-46
2021/12/25 09:38:47;;;;;;;;;;;20.20;35.20;;;;;;482188;246;1025;-46
2021/12/25 09:40:48;;;;;;;;;;;20.20;35.20;;;;;;482588;246;1320;-46
2021/12/25 09:42:50;;;;;;;;;;;20.30;35.20;;;;;;482320;246;1182;-46
2021/12/25 09:44:51;;;;;;;;;;;20.30;35.20;;;;;;482305;246;1217;-46
2021/12/25 09:46:52;;;;;;;;;;;20.20;35.10;;;;;;482223;246;1132;-46
2021/12/25 09:48:54;;;;;;;;;;;20.30;35.20;;;;;;482704;246;1226;-47
2021/12/25 09:50:55;;;;;;;;;;;20.30;35.10;;;;;;482217;246;1220;-46
2021/12/25 09:52:57;;;;;;;;;;;20.30;35.20;;;;;;482252;246;1054;-46
2021/12/25 09:54:58;;;;;;;;;;;20.20;35.20;;;;;;482242;246;2192;-46
2021/12/25 09:56:59;;;;;;;;;;;20.20;35.20;;;;;;482130;246;1546;-46
2021/12/25 09:59:00;;;;;;;;;;;20.20;35.30;;;;;;482359;246;1051;-46
2021/12/25 10:01:02;;;;;;;;;;;20.20;35.30;;;;;;482162;246;1163;-46
2021/12/25 10:03:03;;;;;;;;;;;20.10;35.30;;;;;;482305;246;1165;-46
2021/12/25 10:05:05;;;;;;;;;;;20.20;35.40;;;;;;482237;246;1300;-46
2021/12/25 10:07:06;;;;;;;;;;;20.20;35.30;;;;;;482157;246;2188;-46
2021/12/25 10:09:07;;;;;;;;;;;20.20;35.30;;;;;;482508;246;1040;-46
2021/12/25 10:11:09;;;;;;;;;;;20.20;35.30;;;;;;482314;246;1461;-46
2021/12/25 10:13:09;;;;;;;;;;;20.20;35.20;;;;;;482284;246;1262;-46
2021/12/25 10:15:11;;;;;;;;;;;20.20;35.30;;;;;;482261;246;2192;-46
2021/12/25 10:17:12;;;;;;;;;;;20.20;35.20;;;;;;482328;246;1272;-46
2021/12/25 10:19:13;;;;;;;;;;;20.20;35.30;;;;;;482409;246;1050;-46
2021/12/25 10:21:15;;;;;;;;;;;20.20;35.30;;;;;;482177;246;1272;-46
2021/12/25 10:23:22;;;;;;;;;;;20.20;35.30;;;;;;482633;246;1091;-46
2021/12/25 10:25:17;;;;;;;;;;;20.20;35.40;;;;;;482307;247;2097;-46
2021/12/25 10:27:20;;;;;;;;;;;20.10;35.40;;;;;;482261;246;1212;-46
2021/12/25 10:29:20;;;;;;;;;;;20.20;35.40;;;;;;482564;246;1441;-46
2021/12/25 10:31:21;;;;;;;;;;;20.10;35.40;;;;;;482390;246;1431;-46
2021/12/25 10:33:23;;;;;;;;;;;20.20;35.30;;;;;;482392;246;1212;-46
2021/12/25 10:35:25;;;;;;;;;;;20.30;34.90;;;;;;482249;246;2188;-47
2021/12/25 10:37:25;;;;;;;;;;;20.60;34.50;;;;;;482326;246;2145;-47
2021/12/25 10:39:27;;;;;;;;;;;20.80;34.30;;;;;;482284;246;1103;-46
2021/12/25 10:41:28;;;;;;;;;;;20.90;34.00;;;;;;482611;246;1371;-46
2021/12/25 10:43:29;;;;;;;;;;;21.00;33.80;;;;;;482411;246;1466;-47
2021/12/25 10:45:31;;;;;;;;;;;21.10;33.70;;;;;;482257;246;1200;-46
2021/12/25 10:47:32;;;;;;;;;;;21.20;33.60;;;;;;482506;246;1153;-47
2021/12/25 10:49:34;;;;;;;;;;;21.20;33.40;;;;;;482655;246;1199;-47
2021/12/25 10:51:35;;;;;;;;;;;21.30;33.40;;;;;;482338;246;1289;-46
2021/12/25 10:53:40;;;;;;;;;;;21.30;33.30;;;;;;482403;246;1078;-46
2021/12/25 10:55:38;;;;;;;;;;;21.40;33.20;;;;;;482017;247;2193;-47
2021/12/25 10:57:40;;;;;;;;;;;21.40;33.10;;;;;;482259;246;1093;-46
2021/12/25 10:59:40;;;;;;;;;;;21.50;33.10;;;;;;482658;246;1561;-47
2021/12/25 11:01:42;;;;;;;;;;;21.50;33.00;;;;;;482368;246;1175;-47
2021/12/25 11:03:43;;;;;;;;;;;21.50;33.00;;;;;;482193;246;1232;-47
2021/12/25 11:05:44;;;;;;;;;;;21.60;32.90;;;;;;482499;246;1264;-47
2021/12/25 11:07:45;;;;;;;;;;;21.60;32.90;;;;;;482137;246;1362;-46
2021/12/25 11:09:47;;;;;;;;;;;21.70;32.90;;;;;;482410;246;1049;-46
2021/12/25 11:11:48;;;;;;;;;;;21.70;32.80;;;;;;482598;246;1197;-47
2021/12/25 11:13:50;;;;;;;;;;;21.70;32.80;;;;;;482400;246;1078;-47
2021/12/25 11:15:52;;;;;;;;;;;21.70;32.80;;;;;;482288;246;2282;-46
2021/12/25 11:17:53;;;;;;;;;;;21.70;32.70;;;;;;482149;247;2305;-46
2021/12/25 11:19:59;;;;;;;;;;;21.80;32.70;;;;;;482213;246;1582;-46
2021/12/25 11:21:59;;;;;;;;;;;21.80;32.70;;;;;;482064;247;2345;-47
2021/12/25 11:24:00;;;;;;;;;;;21.90;32.70;;;;;;482728;246;1010;-47
2021/12/25 11:26:01;;;;;;;;;;;21.80;32.60;;;;;;482477;246;1264;-47
2021/12/25 11:28:03;;;;;;;;;;;21.90;32.60;;;;;;482391;246;1224;-47
2021/12/25 11:30:04;;;;;;;;;;;21.90;32.60;;;;;;482296;246;1264;-47
2021/12/25 11:32:05;;;;;;;;;;;21.90;32.60;;;;;;482212;246;1307;-46
2021/12/25 11:34:07;;;;;;;;;;;21.90;32.60;;;;;;482666;246;1158;-47
2021/12/25 11:36:08;;;;;;;;;;;21.90;32.50;;;;;;482571;246;2184;-47
2021/12/25 11:38:09;;;;;;;;;;;21.90;32.50;;;;;;482318;246;1235;-47
2021/12/25 11:40:10;;;;;;;;;;;22.00;32.50;;;;;;482280;246;990;-46
2021/12/25 11:42:12;;;;;;;;;;;22.00;32.50;;;;;;482250;246;1361;-47
2021/12/25 11:44:13;;;;;;;;;;;22.00;32.40;;;;;;482726;246;1055;-46
2021/12/25 11:46:15;;;;;;;;;;;22.00;32.40;;;;;;482146;246;1504;-46
2021/12/25 11:48:16;;;;;;;;;;;22.00;32.40;;;;;;482245;246;1119;-47
2021/12/25 11:50:17;;;;;;;;;;;22.10;32.40;;;;;;482717;246;1089;-47
2021/12/25 11:52:19;;;;;;;;;;;22.10;32.50;;;;;;482113;246;1476;-46
2021/12/25 11:54:27;;;;;;;;;;;22.10;32.50;;;;;;482409;246;1054;-46
2021/12/25 11:56:35;;;;;;;;;;;22.10;32.40;;;;;;482007;247;2204;-47
2021/12/25 11:58:37;;;;;;;;;;;22.10;32.40;;;;;;482108;247;1757;-47
2021/12/25 12:00:37;;;;;;;;;;;22.10;32.40;;;;;;482663;246;1575;-47
2021/12/25 12:02:39;;;;;;;;;;;22.10;32.40;;;;;;482615;246;1459;-46
2021/12/25 12:04:41;;;;;;;;;;;22.10;32.40;;;;;;482408;246;1066;-46
2021/12/25 12:06:42;;;;;;;;;;;22.10;32.30;;;;;;482360;246;1474;-47
2021/12/25 12:08:43;;;;;;;;;;;22.20;32.40;;;;;;482567;247;1080;-46
2021/12/25 12:10:44;;;;;;;;;;;22.10;32.40;;;;;;482190;246;1525;-47
2021/12/25 12:12:46;;;;;;;;;;;22.10;32.40;;;;;;482170;246;1236;-46
2021/12/25 12:14:47;;;;;;;;;;;22.20;32.40;;;;;;482697;246;2189;-47
2021/12/25 12:16:48;;;;;;;;;;;22.20;32.40;;;;;;482238;246;1229;-47
2021/12/25 12:18:50;;;;;;;;;;;22.20;32.30;;;;;;482267;246;1104;-47
2021/12/25 12:20:51;;;;;;;;;;;22.20;32.30;;;;;;482704;246;1278;-47
2021/12/25 12:23:00;;;;;;;;;;;22.20;32.30;;;;;;482230;246;1254;-47
2021/12/25 12:25:15;;;;;;;;;;;22.20;32.30;;;;;;482145;247;2351;-46
2021/12/25 12:27:02;;;;;;;;;;;22.30;32.30;;;;;;481318;247;2349;-46
2021/12/25 12:29:04;;;;;;;;;;;22.20;32.20;;;;;;482275;246;1097;-46
2021/12/25 12:31:05;;;;;;;;;;;22.30;32.30;;;;;;482472;246;1411;-47
2021/12/25 12:33:06;;;;;;;;;;;22.30;32.30;;;;;;482239;246;1562;-47
2021/12/25 12:35:08;;;;;;;;;;;22.30;32.30;;;;;;482697;246;2189;-46
2021/12/25 12:37:09;;;;;;;;;;;22.30;32.20;;;;;;482323;246;1213;-47
2021/12/25 12:39:10;;;;;;;;;;;22.30;32.30;;;;;;482680;246;1209;-47
2021/12/25 12:41:12;;;;;;;;;;;22.30;32.20;;;;;;482189;246;1204;-46
2021/12/25 12:43:14;;;;;;;;;;;22.30;32.30;;;;;;482660;246;1153;-47
2021/12/25 12:45:14;;;;;;;;;;;22.30;32.20;;;;;;482651;247;2246;-47